Time;durP1;ratioP1;P1;durP2;ratioP2;P2;SDS_P1;SDS_P2;PMS_P1;PMS_P2;Temp;Humidity;BMP_temperature;BMP_pressure;BME280_temperature;BME280_humidity;BME280_pressure;Samples;Min_cycle;Max_cycle;Signal;HPM_P1;HPM_P2
2022/06/08 00:01:29;;;;;;;0.40;0.40;;;;;;;;;;5094291;28;20048;-73
2022/06/08 00:03:57;;;;;;;0.70;0.60;;;;;;;;;;5093992;28;20415;-72
2022/06/08 00:06:24;;;;;;;0.55;0.55;;;;;;;;;;5074036;28;20530;-73
2022/06/08 00:08:50;;;;;;;0.70;0.70;;;;;;;;;;5087794;28;20090;-73
2022/06/08 00:11:17;;;;;;;0.45;0.45;;;;;;;;;;5093536;28;20450;-73
2022/06/08 00:13:44;;;;;;;0.75;0.43;;;;;;;;;;5094333;28;20098;-72
2022/06/08 00:16:12;;;;;;;0.68;0.47;;;;;;;;;;5083807;28;20063;-72
2022/06/08 00:18:40;;;;;;;0.45;0.45;;;;;;;;;;5084954;28;20055;-72
2022/06/08 00:21:07;;;;;;;1.30;0.60;;;;;;;;;;5094010;28;20044;-73
2022/06/08 00:23:34;;;;;;;0.40;0.40;;;;;;;;;;5094041;28;20103;-73
2022/06/08 00:26:01;;;;;;;0.67;0.47;;;;;;;;;;5093646;28;20507;-73
2022/06/08 00:28:27;;;;;;;1.17;0.50;;;;;;;;;;5093841;28;20083;-73
2022/06/08 00:30:54;;;;;;;1.00;0.40;;;;;;;;;;5094028;28;20076;-73
2022/06/08 00:33:20;;;;;;;0.43;0.43;;;;;;;;;;5093695;28;20464;-73
2022/06/08 00:35:47;;;;;;;0.68;0.40;;;;;;;;;;5093517;28;20127;-73
2022/06/08 00:38:13;;;;;;;0.50;0.50;;;;;;;;;;5093367;28;20566;-73
2022/06/08 00:40:40;;;;;;;0.68;0.68;;;;;;;;;;5093336;28;20059;-73
2022/06/08 00:43:06;;;;;;;0.40;0.40;;;;;;;;;;5093337;28;20153;-73
2022/06/08 00:45:33;;;;;;;0.60;0.60;;;;;;;;;;5092056;28;20056;-73
2022/06/08 00:48:01;;;;;;;0.82;0.65;;;;;;;;;;5092130;28;20087;-73
2022/06/08 00:50:33;;;;;;;0.77;0.50;;;;;;;;;;5093272;28;20079;-73
2022/06/08 00:53:00;;;;;;;1.05;0.60;;;;;;;;;;5093447;28;20114;-73
2022/06/08 00:55:28;;;;;;;0.40;0.37;;;;;;;;;;5093235;28;20082;-73
2022/06/08 00:57:56;;;;;;;0.52;0.52;;;;;;;;;;5093356;28;20719;-73
2022/06/08 01:00:27;;;;;;;0.70;0.70;;;;;;;;;;5093264;28;20102;-72
2022/06/08 01:02:54;;;;;;;0.60;0.60;;;;;;;;;;5093267;28;20064;-72
2022/06/08 01:05:23;;;;;;;1.02;1.00;;;;;;;;;;5093224;28;20446;-72
2022/06/08 01:07:51;;;;;;;1.20;1.15;;;;;;;;;;5092747;28;20423;-73
2022/06/08 01:10:20;;;;;;;1.65;1.55;;;;;;;;;;5093034;28;20090;-73
2022/06/08 01:12:46;;;;;;;1.75;1.65;;;;;;;;;;5092364;28;20467;-72
2022/06/08 01:15:15;;;;;;;2.75;2.55;;;;;;;;;;5091620;28;20083;-72
2022/06/08 01:17:42;;;;;;;2.25;2.05;;;;;;;;;;5092585;28;20151;-73
2022/06/08 01:20:10;;;;;;;2.45;2.13;;;;;;;;;;5091702;28;20083;-73
2022/06/08 01:22:37;;;;;;;2.45;2.33;;;;;;;;;;5092534;28;20470;-73
2022/06/08 01:25:04;;;;;;;2.53;2.13;;;;;;;;;;5093009;28;20079;-72
2022/06/08 01:27:42;;;;;;;2.90;2.67;;;;;;;;;;5092454;28;20094;-73
2022/06/08 01:30:14;;;;;;;2.78;2.55;;;;;;;;;;5091074;28;20456;-72
2022/06/08 01:33:01;;;;;;;2.65;2.45;;;;;;;;;;5092266;28;20079;-72
2022/06/08 01:35:34;;;;;;;2.40;2.20;;;;;;;;;;5092181;28;20112;-72
2022/06/08 01:38:12;;;;;;;3.03;2.72;;;;;;;;;;5092535;28;20102;-73
2022/06/08 01:40:39;;;;;;;2.63;2.42;;;;;;;;;;5091208;28;20047;-73
2022/06/08 01:43:05;;;;;;;2.92;2.40;;;;;;;;;;5091309;28;20086;-73
2022/06/08 01:45:46;;;;;;;3.90;2.90;;;;;;;;;;5091658;28;20117;-73
2022/06/08 01:48:31;;;;;;;2.22;2.03;;;;;;;;;;5091609;28;20052;-72
2022/06/08 01:51:06;;;;;;;3.38;1.88;;;;;;;;;;5091384;28;20567;-73
2022/06/08 01:53:48;;;;;;;3.78;1.73;;;;;;;;;;5089907;28;20535;-73
2022/06/08 01:56:22;;;;;;;1.45;1.05;;;;;;;;;;5091519;28;20086;-72
2022/06/08 01:59:07;;;;;;;1.65;1.10;;;;;;;;;;5091492;28;20090;-73
2022/06/08 02:01:43;;;;;;;2.85;1.30;;;;;;;;;;5091174;28;20515;-73
2022/06/08 02:04:17;;;;;;;1.23;1.08;;;;;;;;;;5091035;28;20138;-73
2022/06/08 02:06:51;;;;;;;2.60;1.55;;;;;;;;;;5091110;28;20093;-72
2022/06/08 02:09:22;;;;;;;1.88;1.02;;;;;;;;;;5090001;28;20072;-72
2022/06/08 02:12:08;;;;;;;3.55;1.10;;;;;;;;;;5091057;28;20080;-73
2022/06/08 02:14:44;;;;;;;2.55;1.40;;;;;;;;;;5090966;28;20446;-73
2022/06/08 02:17:16;;;;;;;2.28;1.30;;;;;;;;;;5090974;28;20491;-73
2022/06/08 02:19:46;;;;;;;2.15;1.42;;;;;;;;;;5090206;28;20083;-72
2022/06/08 02:22:38;;;;;;;1.85;1.40;;;;;;;;;;5090830;28;20487;-72
2022/06/08 02:25:20;;;;;;;1.48;1.17;;;;;;;;;;5084003;28;20044;-72
2022/06/08 02:28:22;;;;;;;1.70;1.00;;;;;;;;;;5091035;28;20408;-72
2022/06/08 02:31:01;;;;;;;2.13;1.30;;;;;;;;;;5088596;28;20118;-73
2022/06/08 02:36:30;;;;;;;3.20;1.20;;;;;;;;;;5091118;28;20444;-72
2022/06/08 02:39:00;;;;;;;3.45;1.13;;;;;;;;;;5090637;28;20055;-72
2022/06/08 02:41:27;;;;;;;1.58;1.00;;;;;;;;;;5089704;28;20071;-72
2022/06/08 02:43:59;;;;;;;3.08;1.40;;;;;;;;;;5090524;28;20052;-72
2022/06/08 02:46:33;;;;;;;1.95;1.17;;;;;;;;;;5051430;28;1135518;-72
2022/06/08 02:49:03;;;;;;;2.95;1.40;;;;;;;;;;5091660;28;20040;-72
2022/06/08 02:51:30;;;;;;;2.80;1.23;;;;;;;;;;5091722;28;20103;-72
2022/06/08 02:54:05;;;;;;;3.22;1.45;;;;;;;;;;5091378;28;20089;-72
2022/06/08 02:56:50;;;;;;;2.75;1.58;;;;;;;;;;5091410;28;20079;-72
2022/06/08 02:59:23;;;;;;;4.57;1.42;;;;;;;;;;5090149;28;20063;-72
2022/06/08 03:01:58;;;;;;;4.78;1.50;;;;;;;;;;5091491;28;20148;-72
2022/06/08 03:04:48;;;;;;;2.25;1.00;;;;;;;;;;5091263;28;20551;-71
2022/06/08 03:07:16;;;;;;;2.28;1.38;;;;;;;;;;5090138;28;20092;-72
2022/06/08 03:09:44;;;;;;;3.95;1.48;;;;;;;;;;5089867;28;20062;-72
2022/06/08 03:12:14;;;;;;;4.13;1.80;;;;;;;;;;5091437;28;20707;-72
2022/06/08 03:14:42;;;;;;;5.00;2.42;;;;;;;;;;5091626;28;20101;-72
2022/06/08 03:17:10;;;;;;;2.20;1.13;;;;;;;;;;5091125;28;20052;-72
2022/06/08 03:19:37;;;;;;;3.22;1.45;;;;;;;;;;5091109;28;20472;-72
2022/06/08 03:22:05;;;;;;;7.28;1.73;;;;;;;;;;5091462;28;20455;-71
2022/06/08 03:24:31;;;;;;;5.13;1.50;;;;;;;;;;5091363;28;20044;-72
2022/06/08 03:27:01;;;;;;;5.85;1.60;;;;;;;;;;5091406;28;20076;-72
2022/06/08 03:29:28;;;;;;;2.75;1.55;;;;;;;;;;5091006;28;20052;-72
2022/06/08 03:31:54;;;;;;;6.07;2.10;;;;;;;;;;5089679;28;20086;-72
2022/06/08 03:34:21;;;;;;;4.38;1.60;;;;;;;;;;5091652;28;20084;-72
2022/06/08 03:36:47;;;;;;;4.68;1.70;;;;;;;;;;5094801;28;20048;-71
2022/06/08 03:39:14;;;;;;;6.32;2.22;;;;;;;;;;5093675;28;20113;-71
2022/06/08 03:41:40;;;;;;;3.80;1.67;;;;;;;;;;5094594;28;20052;-71
2022/06/08 03:44:07;;;;;;;3.58;1.52;;;;;;;;;;5093606;28;20047;-71
2022/06/08 03:46:36;;;;;;;5.15;2.05;;;;;;;;;;5093229;28;20063;-71
2022/06/08 03:49:03;;;;;;;5.60;1.48;;;;;;;;;;5094293;28;20044;-71
2022/06/08 03:51:30;;;;;;;7.72;2.17;;;;;;;;;;5094661;28;20082;-71
2022/06/08 03:54:02;;;;;;;6.68;1.90;;;;;;;;;;5094285;28;20155;-71
2022/06/08 03:56:30;;;;;;;6.20;1.65;;;;;;;;;;5093306;28;20044;-71
2022/06/08 03:58:56;;;;;;;;;;;;;;;;;;5093577;28;20088;-71
2022/06/08 04:01:23;;;;;;;5.95;1.88;;;;;;;;;;5094440;28;19965;-71
2022/06/08 04:03:52;;;;;;;4.70;2.00;;;;;;;;;;5094031;28;20052;-71
2022/06/08 04:06:19;;;;;;;7.15;1.88;;;;;;;;;;5093180;28;20044;-71
2022/06/08 04:08:45;;;;;;;7.32;1.98;;;;;;;;;;5094068;28;20048;-71
2022/06/08 04:11:12;;;;;;;7.63;2.15;;;;;;;;;;5093804;28;20131;-71
2022/06/08 04:13:39;;;;;;;6.65;2.00;;;;;;;;;;5094193;28;20051;-71
2022/06/08 04:16:05;;;;;;;8.02;1.95;;;;;;;;;;5093792;28;20083;-71
2022/06/08 04:18:32;;;;;;;6.05;1.80;;;;;;;;;;5093861;28;20044;-71
2022/06/08 04:21:00;;;;;;;5.60;1.67;;;;;;;;;;5094065;28;20101;-71
2022/06/08 04:23:26;;;;;;;;;;;;;;;;;;5094341;28;20516;-71
2022/06/08 04:25:53;;;;;;;6.00;1.40;;;;;;;;;;5093845;28;19920;-71
2022/06/08 04:28:21;;;;;;;4.90;1.27;;;;;;;;;;5093929;28;20056;-71
2022/06/08 04:30:47;;;;;;;5.95;1.83;;;;;;;;;;5093523;28;20508;-71
2022/06/08 04:33:14;;;;;;;5.75;2.28;;;;;;;;;;5093773;28;20558;-71
2022/06/08 04:35:41;;;;;;;8.00;2.35;;;;;;;;;;5093802;28;20083;-71
2022/06/08 04:38:07;;;;;;;10.05;1.73;;;;;;;;;;5093822;28;20098;-71
2022/06/08 04:40:34;;;;;;;7.07;1.97;;;;;;;;;;5093287;28;20056;-70
2022/06/08 04:43:01;;;;;;;8.60;1.70;;;;;;;;;;5093647;28;20289;-71
2022/06/08 04:45:28;;;;;;;6.67;1.80;;;;;;;;;;5093066;28;20392;-71
2022/06/08 04:47:54;;;;;;;4.43;1.67;;;;;;;;;;5092950;28;20312;-71
2022/06/08 04:50:26;;;;;;;8.45;2.20;;;;;;;;;;5093441;28;20479;-71
2022/06/08 04:52:52;;;;;;;4.75;1.73;;;;;;;;;;5093490;28;20052;-71
2022/06/08 04:55:19;;;;;;;6.47;1.52;;;;;;;;;;5093212;28;20120;-71
2022/06/08 04:57:45;;;;;;;7.15;1.77;;;;;;;;;;5093282;28;20527;-71
2022/06/08 05:00:14;;;;;;;3.40;1.15;;;;;;;;;;5093353;28;20091;-71
2022/06/08 05:02:44;;;;;;;2.90;1.27;;;;;;;;;;5093184;28;20084;-71
2022/06/08 05:05:12;;;;;;;3.63;1.00;;;;;;;;;;5091810;28;20522;-71
2022/06/08 05:07:39;;;;;;;2.72;0.75;;;;;;;;;;5092990;28;20080;-71
2022/06/08 05:10:06;;;;;;;1.10;0.53;;;;;;;;;;5092801;28;20399;-71
2022/06/08 05:12:32;;;;;;;4.20;1.07;;;;;;;;;;5092926;28;20079;-71
2022/06/08 05:14:59;;;;;;;4.78;1.30;;;;;;;;;;5092803;28;20090;-71
2022/06/08 05:17:26;;;;;;;5.60;1.20;;;;;;;;;;5092639;28;20052;-70
2022/06/08 05:19:52;;;;;;;5.27;1.10;;;;;;;;;;5092757;28;20083;-71
2022/06/08 05:22:18;;;;;;;3.67;0.85;;;;;;;;;;5093027;28;20445;-71
2022/06/08 05:24:45;;;;;;;3.97;0.85;;;;;;;;;;5092783;28;20083;-71
2022/06/08 05:27:11;;;;;;;2.83;0.90;;;;;;;;;;5092641;28;20087;-70
2022/06/08 05:29:38;;;;;;;4.53;0.93;;;;;;;;;;5092314;28;20549;-71
2022/06/08 05:32:04;;;;;;;2.95;0.73;;;;;;;;;;5092786;28;20509;-71
2022/06/08 05:34:31;;;;;;;3.65;0.85;;;;;;;;;;5092462;28;20084;-70
2022/06/08 05:36:57;;;;;;;3.28;1.05;;;;;;;;;;5092535;28;20047;-70
2022/06/08 05:39:24;;;;;;;2.45;0.90;;;;;;;;;;5092567;28;20105;-70
2022/06/08 05:41:50;;;;;;;5.63;1.35;;;;;;;;;;5092447;28;20079;-71
2022/06/08 05:44:20;;;;;;;4.57;1.35;;;;;;;;;;5092403;28;20044;-70
2022/06/08 05:46:48;;;;;;;3.53;1.00;;;;;;;;;;5092043;28;20091;-70
2022/06/08 05:49:15;;;;;;;;;;;;;;;;;;5091626;28;20040;-71
2022/06/08 05:51:41;;;;;;;6.25;1.73;;;;;;;;;;5092197;28;20468;-70
2022/06/08 05:54:08;;;;;;;6.40;1.27;;;;;;;;;;5091162;28;20446;-70
2022/06/08 05:56:35;;;;;;;3.93;1.33;;;;;;;;;;5091066;28;20075;-70
2022/06/08 05:59:02;;;;;;;6.77;1.20;;;;;;;;;;5091717;28;20048;-71
2022/06/08 06:01:28;;;;;;;4.75;1.08;;;;;;;;;;5092048;28;20427;-71
2022/06/08 06:03:55;;;;;;;5.10;1.02;;;;;;;;;;5092428;28;20040;-69
2022/06/08 06:06:21;;;;;;;4.75;1.45;;;;;;;;;;5090381;28;20040;-69
2022/06/08 06:08:47;;;;;;;4.07;1.10;;;;;;;;;;5086161;28;20090;-69
2022/06/08 06:11:14;;;;;;;5.10;0.80;;;;;;;;;;5091642;28;20126;-68
2022/06/08 06:13:41;;;;;;;4.32;0.85;;;;;;;;;;5090841;28;20070;-68
2022/06/08 06:16:07;;;;;;;3.50;0.90;;;;;;;;;;5091540;28;20056;-67
2022/06/08 06:18:34;;;;;;;4.82;0.88;;;;;;;;;;5091104;28;20051;-71
2022/06/08 06:21:01;;;;;;;3.70;0.70;;;;;;;;;;5091563;28;20056;-75
2022/06/08 06:23:29;;;;;;;4.95;1.05;;;;;;;;;;5091295;28;20117;-72
2022/06/08 06:25:56;;;;;;;4.40;1.13;;;;;;;;;;5086981;28;20079;-74
2022/06/08 06:28:22;;;;;;;5.22;0.80;;;;;;;;;;5091684;28;20098;-73
2022/06/08 06:30:49;;;;;;;5.00;1.00;;;;;;;;;;5090011;28;20127;-72
2022/06/08 06:33:15;;;;;;;4.87;0.77;;;;;;;;;;5091557;28;20070;-69
2022/06/08 06:35:42;;;;;;;2.03;0.30;;;;;;;;;;5091734;28;20087;-71
2022/06/08 06:38:09;;;;;;;4.07;0.40;;;;;;;;;;5091592;28;20044;-73
2022/06/08 06:40:37;;;;;;;1.35;0.43;;;;;;;;;;5091454;28;20052;-71
2022/06/08 06:43:04;;;;;;;5.18;0.80;;;;;;;;;;5091631;28;20080;-71
2022/06/08 06:45:31;;;;;;;;;;;;;;;;;;5091598;28;20056;-70
2022/06/08 06:47:58;;;;;;;1.58;0.60;;;;;;;;;;5091445;28;19967;-70
2022/06/08 06:50:25;;;;;;;1.90;0.30;;;;;;;;;;5090413;28;20097;-71
2022/06/08 06:52:52;;;;;;;2.73;0.57;;;;;;;;;;5091569;28;20472;-70
2022/06/08 06:55:20;;;;;;;1.40;0.50;;;;;;;;;;5091311;28;20731;-70
2022/06/08 06:57:46;;;;;;;3.20;0.50;;;;;;;;;;5089957;28;20044;-70
2022/06/08 07:00:13;;;;;;;1.80;0.30;;;;;;;;;;5091415;28;20088;-71
2022/06/08 07:02:40;;;;;;;3.83;0.53;;;;;;;;;;5091338;28;20070;-70
2022/06/08 07:05:09;;;;;;;4.47;0.50;;;;;;;;;;5091558;28;20752;-70
2022/06/08 07:07:35;;;;;;;2.40;0.60;;;;;;;;;;5091232;28;20553;-70
2022/06/08 07:10:02;;;;;;;2.72;0.47;;;;;;;;;;5092674;28;20083;-69
2022/06/08 07:12:28;;;;;;;5.82;0.82;;;;;;;;;;5094270;28;20127;-70
2022/06/08 07:14:54;;;;;;;3.60;0.70;;;;;;;;;;5095347;28;20044;-71
2022/06/08 07:17:21;;;;;;;3.75;0.45;;;;;;;;;;5095226;28;20079;-70
2022/06/08 07:19:47;;;;;;;4.35;0.60;;;;;;;;;;5093891;28;20079;-70
2022/06/08 07:22:14;;;;;;;1.05;0.82;;;;;;;;;;5095175;28;20040;-70
2022/06/08 07:24:40;;;;;;;7.72;1.25;;;;;;;;;;5095198;28;20040;-69
2022/06/08 07:27:07;;;;;;;2.67;0.77;;;;;;;;;;5094876;28;20076;-70
2022/06/08 07:29:33;;;;;;;22.90;8.90;;;;;;;;;;5094895;28;20084;-70
2022/06/08 07:32:00;;;;;;;7.28;2.15;;;;;;;;;;5095048;28;20079;-70
2022/06/08 07:34:26;;;;;;;10.70;4.60;;;;;;;;;;5094774;28;20086;-70
2022/06/08 07:36:53;;;;;;;2.33;0.63;;;;;;;;;;5094648;28;20072;-69
2022/06/08 07:39:20;;;;;;;7.18;4.68;;;;;;;;;;5094598;28;20304;-69
2022/06/08 07:41:48;;;;;;;12.43;7.90;;;;;;;;;;5094725;28;20079;-69
2022/06/08 07:44:15;;;;;;;;;;;;;;;;;;5094927;28;20090;-69
2022/06/08 07:46:42;;;;;;;4.22;2.25;;;;;;;;;;5094385;28;19928;-69
2022/06/08 07:51:55;;;;;;;;;;;;;;;;;;5095028;28;20125;-69
2022/06/08 07:54:23;;;;;;;6.73;3.60;;;;;;;;;;5094607;28;19963;-70
2022/06/08 07:56:51;;;;;;;5.53;2.75;;;;;;;;;;5094244;28;20526;-69
2022/06/08 07:59:19;;;;;;;4.90;2.20;;;;;;;;;;5094344;28;20407;-69
2022/06/08 08:01:45;;;;;;;2.92;0.98;;;;;;;;;;5094536;28;20084;-69
2022/06/08 08:04:12;;;;;;;4.97;1.67;;;;;;;;;;5094106;28;20083;-70
2022/06/08 08:06:38;;;;;;;2.15;0.98;;;;;;;;;;5094322;28;20083;-69
2022/06/08 08:09:05;;;;;;;4.80;1.60;;;;;;;;;;5094359;28;20051;-69
2022/06/08 08:11:31;;;;;;;4.43;1.40;;;;;;;;;;5094295;28;20079;-69
2022/06/08 08:13:58;;;;;;;4.65;2.00;;;;;;;;;;5094180;28;20079;-70
2022/06/08 08:16:25;;;;;;;4.28;1.33;;;;;;;;;;5094245;28;20105;-69
2022/06/08 08:18:51;;;;;;;6.13;1.70;;;;;;;;;;5094010;28;20127;-69
2022/06/08 08:21:18;;;;;;;5.60;1.55;;;;;;;;;;5093917;28;20079;-69
2022/06/08 08:23:45;;;;;;;2.33;0.70;;;;;;;;;;5094247;28;20131;-69
2022/06/08 08:26:11;;;;;;;4.80;1.20;;;;;;;;;;5093897;28;20396;-70
2022/06/08 08:28:38;;;;;;;4.80;1.48;;;;;;;;;;5093916;28;20044;-70
2022/06/08 08:31:04;;;;;;;4.00;0.60;;;;;;;;;;5093519;28;20087;-70
2022/06/08 08:33:34;;;;;;;3.42;0.82;;;;;;;;;;5093808;28;20050;-70
2022/06/08 08:36:00;;;;;;;1.30;0.55;;;;;;;;;;5093513;28;20052;-70
2022/06/08 08:38:27;;;;;;;4.87;1.00;;;;;;;;;;5093841;28;20098;-70
2022/06/08 08:40:57;;;;;;;1.80;0.70;;;;;;;;;;5093813;28;20312;-70
2022/06/08 08:43:25;;;;;;;2.05;0.55;;;;;;;;;;5093358;28;20487;-70
2022/06/08 08:45:58;;;;;;;2.55;0.65;;;;;;;;;;5093183;28;20550;-70
2022/06/08 08:48:28;;;;;;;2.97;0.90;;;;;;;;;;5093509;28;20064;-70
2022/06/08 08:51:05;;;;;;;3.35;0.60;;;;;;;;;;5093395;28;20044;-70
2022/06/08 08:53:31;;;;;;;;;;;;;;;;;;5093865;28;20087;-70
2022/06/08 08:56:03;;;;;;;2.40;0.70;;;;;;;;;;5093240;28;20254;-70
2022/06/08 08:58:32;;;;;;;3.05;0.60;;;;;;;;;;5093613;28;20081;-70
2022/06/08 09:01:00;;;;;;;2.70;0.50;;;;;;;;;;5093241;28;20044;-70
2022/06/08 09:03:32;;;;;;;3.70;0.70;;;;;;;;;;5093340;28;20051;-70
2022/06/08 09:06:08;;;;;;;4.63;0.90;;;;;;;;;;5093067;28;20054;-70
2022/06/08 09:08:35;;;;;;;2.40;0.80;;;;;;;;;;5093254;28;20052;-69
2022/06/08 09:11:02;;;;;;;3.20;0.75;;;;;;;;;;5092767;28;20127;-69
2022/06/08 09:13:36;;;;;;;2.05;0.73;;;;;;;;;;5092779;28;20153;-70
2022/06/08 09:16:10;;;;;;;2.65;0.35;;;;;;;;;;5091906;28;20044;-69
2022/06/08 09:18:41;;;;;;;2.33;0.50;;;;;;;;;;5091516;28;20090;-69
2022/06/08 09:21:26;;;;;;;3.10;0.50;;;;;;;;;;5092971;28;20051;-69
2022/06/08 09:24:13;;;;;;;2.30;0.70;;;;;;;;;;5092651;28;20504;-69
2022/06/08 09:26:40;;;;;;;;;;;;;;;;;;5088277;28;20109;-69
2022/06/08 09:29:09;;;;;;;2.55;0.50;;;;;;;;;;5092461;28;20368;-69
2022/06/08 09:31:36;;;;;;;3.25;0.50;;;;;;;;;;5092525;28;20466;-70
2022/06/08 09:34:12;;;;;;;5.68;0.93;;;;;;;;;;5092024;28;20105;-70
2022/06/08 09:36:38;;;;;;;3.20;0.50;;;;;;;;;;5092602;28;20048;-70
2022/06/08 09:39:05;;;;;;;3.28;0.40;;;;;;;;;;5092662;28;20071;-70
2022/06/08 09:41:37;;;;;;;1.65;0.25;;;;;;;;;;5092664;28;20055;-70
2022/06/08 09:44:17;;;;;;;2.83;0.70;;;;;;;;;;5092662;28;20044;-70
2022/06/08 09:52:47;;;;;;;4.47;0.73;;;;;;;;;;5092177;28;20052;-70
2022/06/08 09:55:25;;;;;;;2.20;0.40;;;;;;;;;;5091940;28;20083;-70
2022/06/08 09:58:00;;;;;;;3.75;0.70;;;;;;;;;;5092290;28;20547;-69
2022/06/08 10:00:34;;;;;;;4.72;0.80;;;;;;;;;;5090751;28;20044;-69
2022/06/08 10:03:13;;;;;;;2.45;1.08;;;;;;;;;;5090778;28;20499;-69
2022/06/08 10:05:42;;;;;;;2.13;0.57;;;;;;;;;;5092398;28;20130;-69
2022/06/08 10:08:26;;;;;;;1.65;0.40;;;;;;;;;;5091924;28;20051;-69
2022/06/08 10:10:59;;;;;;;2.50;0.55;;;;;;;;;;5092083;28;20076;-69
2022/06/08 10:13:28;;;;;;;2.10;0.35;;;;;;;;;;5091851;28;20480;-69
2022/06/08 10:16:01;;;;;;;1.02;0.43;;;;;;;;;;5091644;28;20047;-70
2022/06/08 10:18:31;;;;;;;2.70;0.43;;;;;;;;;;5092077;28;20118;-70
2022/06/08 10:20:59;;;;;;;2.95;0.57;;;;;;;;;;5091719;28;20047;-70
2022/06/08 10:23:25;;;;;;;3.40;0.52;;;;;;;;;;5092000;28;20083;-69
2022/06/08 10:25:55;;;;;;;2.00;0.52;;;;;;;;;;5091715;28;20079;-69
2022/06/08 10:28:41;;;;;;;3.28;0.60;;;;;;;;;;5091940;28;20093;-69
2022/06/08 10:31:31;;;;;;;2.45;0.40;;;;;;;;;;5091982;28;20055;-70
2022/06/08 10:34:03;;;;;;;1.40;0.47;;;;;;;;;;5091114;28;20044;-70
2022/06/08 10:36:34;;;;;;;3.00;0.50;;;;;;;;;;5091635;28;20093;-70
2022/06/08 10:39:01;;;;;;;2.08;0.45;;;;;;;;;;5091901;28;20048;-70
2022/06/08 10:44:42;;;;;;;2.80;0.57;;;;;;;;;;5092187;28;20075;-70
2022/06/08 10:47:16;;;;;;;3.03;0.70;;;;;;;;;;5093381;28;20463;-70
2022/06/08 10:49:49;;;;;;;2.80;0.65;;;;;;;;;;5095648;28;20091;-70
2022/06/08 10:52:18;;;;;;;3.05;0.70;;;;;;;;;;5095630;28;20040;-70
2022/06/08 10:55:05;;;;;;;2.47;0.38;;;;;;;;;;5095756;28;20101;-70
2022/06/08 10:57:38;;;;;;;3.45;0.68;;;;;;;;;;5094668;28;20105;-70
2022/06/08 11:00:24;;;;;;;3.58;0.55;;;;;;;;;;5095763;28;20446;-70
2022/06/08 11:03:01;;;;;;;2.53;0.65;;;;;;;;;;5095891;28;20043;-70
2022/06/08 11:05:30;;;;;;;3.58;0.60;;;;;;;;;;5095263;28;20087;-70
2022/06/08 11:08:00;;;;;;;3.25;1.10;;;;;;;;;;5095294;28;20499;-70
2022/06/08 11:10:50;;;;;;;2.42;0.70;;;;;;;;;;5095666;28;20131;-70
2022/06/08 11:13:26;;;;;;;2.63;0.55;;;;;;;;;;5095257;28;20484;-70
2022/06/08 11:15:53;;;;;;;3.85;1.00;;;;;;;;;;5095080;28;20048;-70
2022/06/08 11:18:35;;;;;;;3.65;0.90;;;;;;;;;;5095455;28;20070;-70
2022/06/08 11:21:04;;;;;;;4.60;1.10;;;;;;;;;;5095246;28;20114;-70
2022/06/08 11:23:33;;;;;;;4.13;1.00;;;;;;;;;;5094990;28;20048;-70
2022/06/08 11:26:05;;;;;;;4.00;1.10;;;;;;;;;;5094829;28;20090;-70
2022/06/08 11:28:39;;;;;;;4.82;1.00;;;;;;;;;;5094803;28;20535;-70
2022/06/08 11:31:11;;;;;;;4.63;1.67;;;;;;;;;;5094982;28;20084;-70
2022/06/08 11:33:57;;;;;;;3.60;0.95;;;;;;;;;;5094908;28;20098;-70
2022/06/08 11:36:39;;;;;;;4.55;1.10;;;;;;;;;;5094765;28;20522;-70
2022/06/08 11:39:17;;;;;;;3.55;1.20;;;;;;;;;;5093510;28;20076;-69
2022/06/08 11:41:55;;;;;;;5.38;0.88;;;;;;;;;;5093286;28;20079;-69
2022/06/08 11:44:22;;;;;;;3.47;0.80;;;;;;;;;;5094952;28;20044;-69
2022/06/08 11:46:53;;;;;;;3.70;0.82;;;;;;;;;;5093145;28;20115;-70
2022/06/08 11:49:32;;;;;;;4.47;1.17;;;;;;;;;;5094571;28;20415;-70
2022/06/08 11:52:15;;;;;;;5.13;1.17;;;;;;;;;;5094758;28;20086;-69
2022/06/08 11:54:41;;;;;;;5.43;1.20;;;;;;;;;;5094723;28;20132;-69
2022/06/08 11:57:12;;;;;;;3.85;1.08;;;;;;;;;;5093765;28;20530;-70
2022/06/08 11:59:40;;;;;;;5.03;1.20;;;;;;;;;;5094280;28;20109;-70
2022/06/08 12:02:24;;;;;;;2.95;0.90;;;;;;;;;;5094729;28;20079;-70
2022/06/08 12:04:56;;;;;;;5.18;0.80;;;;;;;;;;5092905;28;20109;-69
2022/06/08 12:07:35;;;;;;;3.97;0.95;;;;;;;;;;5094230;28;20510;-69
2022/06/08 12:10:03;;;;;;;4.25;0.90;;;;;;;;;;5093161;28;20408;-70
2022/06/08 12:12:29;;;;;;;2.85;0.80;;;;;;;;;;5091825;28;20047;-69
2022/06/08 12:14:56;;;;;;;4.32;1.40;;;;;;;;;;5074129;28;20079;-69
2022/06/08 12:17:31;;;;;;;3.45;1.17;;;;;;;;;;5074568;28;20079;-69
2022/06/08 12:19:58;;;;;;;2.83;0.90;;;;;;;;;;5094214;28;20445;-70
2022/06/08 12:22:26;;;;;;;3.15;1.20;;;;;;;;;;5093818;28;20582;-70
2022/06/08 12:25:07;;;;;;;3.90;1.00;;;;;;;;;;5093853;28;20488;-70
2022/06/08 12:27:41;;;;;;;3.00;0.82;;;;;;;;;;5093701;28;20142;-70
2022/06/08 12:30:18;;;;;;;2.50;0.77;;;;;;;;;;5093872;28;20044;-69
2022/06/08 12:32:52;;;;;;;3.45;1.23;;;;;;;;;;5093646;28;20539;-69
2022/06/08 12:35:23;;;;;;;3.63;0.80;;;;;;;;;;5094040;28;20063;-69
2022/06/08 12:38:01;;;;;;;2.90;0.80;;;;;;;;;;5094029;28;20044;-69
2022/06/08 12:40:29;;;;;;;3.20;0.75;;;;;;;;;;5093761;28;20075;-69
2022/06/08 12:42:59;;;;;;;5.03;1.05;;;;;;;;;;5093517;28;20097;-70
2022/06/08 12:45:27;;;;;;;2.40;0.68;;;;;;;;;;5093075;28;20090;-69
2022/06/08 12:47:54;;;;;;;2.70;0.80;;;;;;;;;;5093548;28;20058;-70
2022/06/08 12:50:22;;;;;;;2.00;0.63;;;;;;;;;;5093463;28;20086;-69
2022/06/08 12:52:49;;;;;;;2.80;0.90;;;;;;;;;;5093110;28;20076;-69
2022/06/08 12:55:15;;;;;;;;;;;;;;;;;;5093798;28;20086;-70
2022/06/08 12:57:46;;;;;;;2.80;0.70;;;;;;;;;;5093241;28;20360;-70
2022/06/08 13:00:17;;;;;;;3.28;0.90;;;;;;;;;;5093457;28;20075;-70
2022/06/08 13:02:44;;;;;;;3.88;0.85;;;;;;;;;;5092942;28;20060;-70
2022/06/08 13:05:16;;;;;;;3.25;0.90;;;;;;;;;;5093221;28;20048;-70
2022/06/08 13:07:43;;;;;;;2.13;0.68;;;;;;;;;;5092094;28;20086;-70
2022/06/08 13:10:10;;;;;;;4.70;0.93;;;;;;;;;;5092940;28;20083;-70
2022/06/08 13:12:36;;;;;;;;;;;;;;;;;;5093209;28;20083;-70
2022/06/08 13:15:03;;;;;;;1.90;0.43;;;;;;;;;;5093075;28;19920;-70
2022/06/08 13:17:30;;;;;;;2.72;0.40;;;;;;;;;;5092897;28;20082;-69
2022/06/08 13:19:57;;;;;;;1.63;0.40;;;;;;;;;;5093029;28;20048;-70
2022/06/08 13:22:25;;;;;;;;;;;;;;;;;;5093571;28;20067;-69
2022/06/08 13:24:52;;;;;;;2.65;0.60;;;;;;;;;;5092909;28;19978;-70
2022/06/08 13:27:19;;;;;;;2.60;0.85;;;;;;;;;;5092948;28;20450;-69
2022/06/08 13:29:46;;;;;;;3.83;0.70;;;;;;;;;;5091133;28;20139;-70
2022/06/08 13:32:14;;;;;;;1.90;0.60;;;;;;;;;;5093026;28;20078;-70
2022/06/08 13:34:40;;;;;;;4.30;1.15;;;;;;;;;;5092790;28;20055;-70
2022/06/08 13:37:17;;;;;;;3.75;1.00;;;;;;;;;;5092662;28;20068;-70
2022/06/08 13:39:43;;;;;;;3.55;0.95;;;;;;;;;;5092585;28;20044;-70
2022/06/08 13:42:14;;;;;;;4.35;0.82;;;;;;;;;;5092265;28;20067;-70
2022/06/08 13:44:42;;;;;;;3.75;1.05;;;;;;;;;;5092564;28;20105;-69
2022/06/08 13:47:18;;;;;;;4.05;0.80;;;;;;;;;;5092275;28;20083;-69
2022/06/08 13:49:53;;;;;;;4.28;1.10;;;;;;;;;;5092547;28;20102;-69
2022/06/08 13:52:21;;;;;;;4.30;1.20;;;;;;;;;;5092356;28;20399;-69
2022/06/08 13:54:52;;;;;;;4.13;1.15;;;;;;;;;;5092444;28;20464;-69
2022/06/08 13:57:19;;;;;;;6.60;1.08;;;;;;;;;;5092022;28;20039;-69
2022/06/08 13:59:46;;;;;;;;;;;;;;;;;;5092918;28;20051;-69
2022/06/08 14:02:18;;;;;;;3.03;0.93;;;;;;;;;;5092129;28;20326;-69
2022/06/08 14:04:45;;;;;;;3.70;0.80;;;;;;;;;;5092085;28;20113;-68
2022/06/08 14:13:00;;;;;;;2.83;0.75;;;;;;;;;;5091922;28;20040;-69
2022/06/08 14:15:27;;;;;;;3.83;0.88;;;;;;;;;;5092137;28;20125;-69
2022/06/08 14:17:54;;;;;;;3.67;0.90;;;;;;;;;;5091660;28;20480;-69
2022/06/08 14:20:20;;;;;;;;;;;;;;;;;;5092586;28;20086;-69
2022/06/08 14:22:47;;;;;;;6.13;1.20;;;;;;;;;;5092000;28;19924;-69
2022/06/08 14:25:15;;;;;;;5.25;0.90;;;;;;;;;;5092082;28;20131;-69
2022/06/08 14:27:41;;;;;;;4.57;1.13;;;;;;;;;;5091637;28;20548;-69
2022/06/08 14:30:09;;;;;;;6.72;1.08;;;;;;;;;;5090801;28;20072;-69
2022/06/08 14:32:41;;;;;;;5.47;0.85;;;;;;;;;;5091538;28;20515;-69
2022/06/08 14:35:12;;;;;;;5.30;0.80;;;;;;;;;;5091809;28;20079;-69
2022/06/08 14:37:59;;;;;;;4.38;1.48;;;;;;;;;;5091529;28;20044;-69
2022/06/08 14:40:27;;;;;;;6.00;0.75;;;;;;;;;;5091545;28;20523;-70
2022/06/08 14:42:54;;;;;;;4.68;1.30;;;;;;;;;;5091501;28;20055;-69
2022/06/08 14:45:21;;;;;;;5.50;1.10;;;;;;;;;;5091347;28;20095;-70
2022/06/08 14:47:49;;;;;;;3.35;0.80;;;;;;;;;;5091537;28;20048;-70
2022/06/08 14:50:18;;;;;;;3.47;1.00;;;;;;;;;;5091442;28;20052;-70
2022/06/08 14:52:45;;;;;;;3.88;0.90;;;;;;;;;;5090393;28;20044;-70
2022/06/08 14:58:02;;;;;;;5.63;1.00;;;;;;;;;;5091408;28;20044;-70
2022/06/08 15:00:29;;;;;;;5.55;1.15;;;;;;;;;;5091618;28;20075;-70
2022/06/08 15:02:57;;;;;;;2.83;0.70;;;;;;;;;;5091411;28;20084;-69
2022/06/08 15:05:25;;;;;;;7.53;1.13;;;;;;;;;;5091539;28;20048;-69
2022/06/08 15:07:51;;;;;;;4.63;1.13;;;;;;;;;;5091339;28;20091;-69
2022/06/08 15:10:18;;;;;;;3.85;1.50;;;;;;;;;;5091638;28;20130;-69
2022/06/08 15:12:47;;;;;;;4.13;1.33;;;;;;;;;;5091451;28;20076;-69
2022/06/08 15:15:16;;;;;;;4.60;1.23;;;;;;;;;;5091456;28;20565;-68
2022/06/08 15:17:43;;;;;;;5.80;1.60;;;;;;;;;;5091222;28;20074;-69
2022/06/08 15:20:18;;;;;;;4.25;1.50;;;;;;;;;;5091124;28;20080;-69
2022/06/08 15:22:50;;;;;;;3.97;1.27;;;;;;;;;;5091511;28;20079;-69
2022/06/08 15:25:18;;;;;;;3.45;1.00;;;;;;;;;;5091464;28;20048;-69